createdAt,value
2019-05-26T00:02:31.423Z,7.60
2019-05-26T00:06:32.439Z,7.00
2019-05-26T00:10:33.334Z,9.07
2019-05-26T00:14:34.217Z,7.93
2019-05-26T00:18:35.103Z,8.63
2019-05-26T00:22:35.971Z,8.40
2019-05-26T00:26:36.888Z,7.83
2019-05-26T00:30:37.932Z,8.47
2019-05-26T00:34:38.934Z,8.63
2019-05-26T00:38:40.123Z,7.57
2019-05-26T00:42:40.980Z,8.07
2019-05-26T00:46:42.079Z,9.30
2019-05-26T00:50:43.064Z,9.50
2019-05-26T00:54:44.038Z,9.50
2019-05-26T00:58:44.913Z,9.20
2019-05-26T01:02:45.792Z,11.07
2019-05-26T01:06:46.793Z,10.13
2019-05-26T01:10:47.672Z,8.40
2019-05-26T01:14:48.576Z,9.27
2019-05-26T01:18:49.403Z,8.60
2019-05-26T01:22:53.609Z,8.40
2019-05-26T01:26:53.102Z,8.10
2019-05-26T01:30:54.214Z,8.53
2019-05-26T01:34:55.090Z,8.63
2019-05-26T01:38:57.120Z,10.80
2019-05-26T01:42:58.089Z,9.67
2019-05-26T01:46:59.012Z,8.70
2019-05-26T01:51:00.082Z,9.23
2019-05-26T01:55:00.933Z,8.63
2019-05-26T01:59:02.006Z,8.00
2019-05-26T02:03:03.287Z,11.87
2019-05-26T02:07:04.399Z,8.80
2019-05-26T02:11:05.266Z,8.97
2019-05-26T02:15:07.072Z,8.17
2019-05-26T02:19:08.036Z,9.30
2019-05-26T02:23:09.010Z,9.37
2019-05-26T02:27:10.047Z,9.07
2019-05-26T02:31:11.050Z,8.80
2019-05-26T02:35:12.455Z,8.60
2019-05-26T02:39:13.338Z,8.90
2019-05-26T02:43:14.291Z,8.67
2019-05-26T02:47:15.139Z,8.50
2019-05-26T02:51:16.082Z,9.20
2019-05-26T02:55:17.707Z,9.13
2019-05-26T02:59:18.570Z,9.93
2019-05-26T03:03:19.549Z,10.33
2019-05-26T03:07:23.422Z,11.23
2019-05-26T03:11:26.432Z,10.07
2019-05-26T03:15:28.121Z,9.27
2019-05-26T03:19:32.519Z,10.07
2019-05-26T03:23:33.549Z,9.20
2019-05-26T03:27:34.433Z,8.73
2019-05-26T03:31:35.410Z,8.30
2019-05-26T03:35:36.298Z,8.73
2019-05-26T03:39:45.394Z,7.97
2019-05-26T03:43:39.991Z,8.33
2019-05-26T03:47:40.966Z,8.73
2019-05-26T03:51:41.843Z,8.77
2019-05-26T03:55:42.723Z,9.50
2019-05-26T03:59:43.771Z,8.33
2019-05-26T04:03:44.649Z,7.67
2019-05-26T04:07:45.561Z,9.50
2019-05-26T04:11:46.440Z,9.30
2019-05-26T04:15:47.392Z,8.23
2019-05-26T04:19:48.246Z,9.27
2019-05-26T04:23:49.182Z,9.30
2019-05-26T04:27:50.149Z,8.60
2019-05-26T04:31:51.226Z,9.00
2019-05-26T04:35:52.092Z,8.50
2019-05-26T04:39:52.991Z,8.80
2019-05-26T04:43:53.950Z,7.93
2019-05-26T04:47:55.125Z,8.23
2019-05-26T04:51:56.062Z,8.47
2019-05-26T04:55:56.922Z,7.53
2019-05-26T04:59:57.829Z,7.40
2019-05-26T05:03:58.707Z,7.37
2019-05-26T05:07:59.666Z,8.03
2019-05-26T05:12:00.713Z,8.50
2019-05-26T05:16:01.587Z,6.90
2019-05-26T05:20:06.937Z,7.03
2019-05-26T05:24:07.787Z,7.57
2019-05-26T05:28:08.756Z,6.60
2019-05-26T05:32:09.646Z,7.67
2019-05-26T05:36:10.767Z,7.00
2019-05-26T05:40:12.207Z,7.97
2019-05-26T05:44:13.167Z,7.40
2019-05-26T05:48:14.017Z,6.37
2019-05-26T05:52:14.905Z,6.43
2019-05-26T05:56:15.776Z,6.73
2019-05-26T06:00:16.975Z,6.83
2019-05-26T06:04:17.931Z,8.53
2019-05-26T06:08:19.096Z,7.60
2019-05-26T06:12:20.120Z,6.80
2019-05-26T06:16:21.032Z,8.07
2019-05-26T06:20:22.015Z,11.37
2019-05-26T06:24:22.874Z,10.63
2019-05-26T06:28:23.836Z,12.60
2019-05-26T06:32:24.725Z,13.43
2019-05-26T06:36:25.699Z,14.33
2019-05-26T06:40:26.790Z,15.50
2019-05-26T06:44:27.685Z,13.17
2019-05-26T06:48:28.566Z,13.80
2019-05-26T06:52:29.460Z,13.80
2019-05-26T06:56:30.376Z,13.60
2019-05-26T07:00:31.246Z,13.07
2019-05-26T07:04:32.119Z,13.07
2019-05-26T07:08:33.121Z,14.33
2019-05-26T07:12:34.586Z,11.03
2019-05-26T07:16:38.502Z,11.17
2019-05-26T07:20:38.348Z,11.43
2019-05-26T07:24:39.432Z,10.03
2019-05-26T07:28:40.309Z,10.53
2019-05-26T07:32:41.191Z,10.57
2019-05-26T07:36:42.087Z,10.77
2019-05-26T07:40:43.011Z,9.43
2019-05-26T07:44:43.901Z,8.57
2019-05-26T07:48:44.769Z,9.17
2019-05-26T07:52:45.641Z,8.23
2019-05-26T07:56:46.568Z,8.53
2019-05-26T08:00:47.625Z,8.87
2019-05-26T08:04:48.505Z,8.17
2019-05-26T08:08:49.401Z,7.40
2019-05-26T08:12:50.314Z,8.07
2019-05-26T08:16:51.271Z,6.90
2019-05-26T08:20:52.363Z,7.00
2019-05-26T08:24:53.236Z,7.57
2019-05-26T08:28:54.233Z,8.23
2019-05-26T08:32:55.195Z,8.33
2019-05-26T08:36:56.105Z,7.20
2019-05-26T08:40:57.044Z,7.07
2019-05-26T08:44:57.941Z,6.93
2019-05-26T08:48:58.860Z,8.43
2019-05-26T08:52:59.838Z,8.13
2019-05-26T08:57:00.941Z,8.00
2019-05-26T09:01:01.958Z,9.67
2019-05-26T09:05:06.556Z,7.30
2019-05-26T09:09:07.678Z,9.17
2019-05-26T09:13:08.657Z,8.43
2019-05-26T09:17:09.658Z,9.07
2019-05-26T09:21:10.537Z,8.03
2019-05-26T09:25:11.638Z,8.63
2019-05-26T09:29:12.518Z,8.77
2019-05-26T09:33:13.519Z,7.20
2019-05-26T09:37:14.593Z,7.80
2019-05-26T09:41:15.473Z,6.57
2019-05-26T09:45:16.797Z,6.63
2019-05-26T09:49:17.789Z,5.07
2019-05-26T09:53:18.684Z,6.20
2019-05-26T09:57:21.404Z,5.00
2019-05-26T10:01:22.466Z,5.13
2019-05-26T10:05:23.330Z,4.07
2019-05-26T10:09:24.209Z,5.50
2019-05-26T10:13:31.898Z,4.77
2019-05-26T10:17:27.869Z,4.00
2019-05-26T10:21:28.774Z,4.17
2019-05-26T10:25:29.676Z,3.70
2019-05-26T10:29:30.652Z,3.47
2019-05-26T10:33:31.648Z,4.03
2019-05-26T10:37:32.616Z,2.97
2019-05-26T10:41:33.517Z,3.30
2019-05-26T10:45:34.650Z,3.50
2019-05-26T10:49:35.745Z,3.17
2019-05-26T10:53:36.856Z,3.20
2019-05-26T10:57:37.944Z,3.37
2019-05-26T11:01:38.950Z,3.33
2019-05-26T11:05:40.047Z,3.50
2019-05-26T11:09:41.158Z,3.00
2019-05-26T11:13:42.170Z,2.80
2019-05-26T11:17:43.218Z,3.17
2019-05-26T11:21:44.288Z,3.10
2019-05-26T11:25:45.188Z,3.57
2019-05-26T11:29:46.090Z,3.50
2019-05-26T11:33:47.174Z,3.30
2019-05-26T11:37:48.167Z,3.00
2019-05-26T11:41:54.891Z,3.33
2019-05-26T11:45:51.899Z,3.87
2019-05-26T11:49:52.834Z,3.37
2019-05-26T11:53:53.831Z,4.00
2019-05-26T11:57:54.789Z,3.10
2019-05-26T12:01:55.868Z,2.83
2019-05-26T12:05:56.796Z,2.73
2019-05-26T12:09:57.783Z,3.47
2019-05-26T12:13:58.734Z,2.80
2019-05-26T12:17:59.620Z,3.60
2019-05-26T12:22:00.602Z,2.90
2019-05-26T12:26:01.515Z,2.93
2019-05-26T12:30:04.680Z,2.50
2019-05-26T12:34:05.644Z,2.37
2019-05-26T12:38:06.517Z,2.40
2019-05-26T12:42:07.513Z,1.90
2019-05-26T12:46:08.439Z,2.13
2019-05-26T12:50:09.934Z,2.10
2019-05-26T12:54:10.902Z,2.30
2019-05-26T12:58:11.908Z,2.40
2019-05-26T13:02:16.146Z,1.47
2019-05-26T13:06:17.799Z,1.80
2019-05-26T13:10:19.002Z,2.20
2019-05-26T13:14:19.884Z,2.20
2019-05-26T13:18:20.922Z,1.90
2019-05-26T13:22:21.884Z,2.63
2019-05-26T13:26:22.864Z,1.60
2019-05-26T13:30:24.260Z,2.00
2019-05-26T13:34:25.273Z,1.40
2019-05-26T13:38:26.228Z,1.13
2019-05-26T13:42:27.193Z,1.07
2019-05-26T13:46:28.131Z,1.60
2019-05-26T13:50:29.016Z,3.23
2019-05-26T13:54:29.921Z,1.07
2019-05-26T13:58:30.876Z,1.67
2019-05-26T14:02:31.853Z,1.10
2019-05-26T14:06:32.846Z,1.40
2019-05-26T14:10:35.460Z,1.70
2019-05-26T14:14:36.376Z,1.90
2019-05-26T14:18:39.519Z,0.90
2019-05-26T14:22:40.568Z,1.00
2019-05-26T14:26:41.467Z,1.30
2019-05-26T14:30:42.368Z,1.10
2019-05-26T14:34:43.320Z,1.60
2019-05-26T14:38:44.307Z,1.03
2019-05-26T14:42:45.298Z,1.73
2019-05-26T14:46:46.432Z,1.20
2019-05-26T14:50:47.616Z,1.90
2019-05-26T14:54:48.619Z,1.40
2019-05-26T14:58:49.663Z,1.60
2019-05-26T15:02:50.603Z,1.83
2019-05-26T15:06:51.607Z,1.40
2019-05-26T15:10:52.695Z,1.70
2019-05-26T15:14:53.901Z,2.10
2019-05-26T15:18:54.881Z,2.27
2019-05-26T15:22:55.756Z,2.03
2019-05-26T15:26:56.625Z,2.37
2019-05-26T15:30:57.620Z,2.00
2019-05-26T15:34:58.653Z,2.20
2019-05-26T15:38:59.722Z,2.40
2019-05-26T15:43:00.659Z,2.23
2019-05-26T15:47:01.735Z,1.83
2019-05-26T15:51:03.731Z,2.13
2019-05-26T15:55:05.478Z,2.37
2019-05-26T15:59:06.463Z,3.80
2019-05-26T16:03:07.386Z,4.27
2019-05-26T16:07:08.500Z,2.43
2019-05-26T16:11:09.585Z,2.43
2019-05-26T16:15:11.282Z,1.80
2019-05-26T16:19:12.506Z,2.10
2019-05-26T16:23:13.477Z,1.60
2019-05-26T16:27:19.159Z,2.10
2019-05-26T16:31:17.312Z,1.87
2019-05-26T16:35:18.459Z,1.87
2019-05-26T16:39:19.596Z,2.20
2019-05-26T16:43:20.475Z,2.80
2019-05-26T16:47:21.402Z,1.93
2019-05-26T16:51:22.475Z,2.33
2019-05-26T16:55:23.414Z,2.00
2019-05-26T16:59:24.460Z,1.83
2019-05-26T17:03:25.381Z,2.00
2019-05-26T17:07:26.573Z,2.37
2019-05-26T17:11:28.258Z,1.93
2019-05-26T17:15:29.234Z,2.23
2019-05-26T17:19:30.201Z,2.30
2019-05-26T17:23:31.075Z,1.83
2019-05-26T17:27:31.987Z,1.90
2019-05-26T17:31:32.885Z,1.90
2019-05-26T17:35:33.878Z,1.90
2019-05-26T17:39:34.931Z,1.80
2019-05-26T17:43:35.861Z,1.80
2019-05-26T17:47:36.989Z,2.20
2019-05-26T17:51:38.108Z,1.53
2019-05-26T17:55:39.239Z,2.17
2019-05-26T17:59:40.310Z,1.97
2019-05-26T18:03:41.417Z,1.20
2019-05-26T18:07:42.308Z,1.80
2019-05-26T18:11:43.311Z,2.43
2019-05-26T18:15:44.496Z,1.40
2019-05-26T18:19:45.534Z,1.70
2019-05-26T18:23:46.518Z,1.60
2019-05-26T18:27:47.409Z,1.70
2019-05-26T18:31:48.419Z,2.23
2019-05-26T18:35:49.513Z,1.80
2019-05-26T18:39:50.632Z,1.80
2019-05-26T18:43:51.849Z,1.83
2019-05-26T18:48:02.416Z,2.07
2019-05-26T18:51:55.891Z,1.70
2019-05-26T18:55:56.903Z,1.83
2019-05-26T18:59:57.994Z,1.90
2019-05-26T19:03:59.028Z,2.13
2019-05-26T19:08:00.050Z,1.30
2019-05-26T19:12:01.264Z,2.10
2019-05-26T19:16:02.749Z,1.50
2019-05-26T19:20:15.616Z,2.40
2019-05-26T19:24:08.159Z,2.17
2019-05-26T19:28:09.174Z,2.40
2019-05-26T19:32:10.290Z,2.67
2019-05-26T19:36:11.360Z,2.07
2019-05-26T19:40:14.075Z,1.93
2019-05-26T19:44:14.975Z,2.20
2019-05-26T19:48:15.906Z,1.93
2019-05-26T19:52:16.943Z,1.87
2019-05-26T19:56:18.182Z,2.23
2019-05-26T20:00:21.360Z,1.70
2019-05-26T20:04:22.312Z,1.93
2019-05-26T20:08:23.389Z,2.20
2019-05-26T20:12:24.320Z,2.40
2019-05-26T20:16:25.224Z,2.07
2019-05-26T20:20:26.233Z,2.00
2019-05-26T20:24:27.164Z,2.23
2019-05-26T20:28:28.402Z,2.40
2019-05-26T20:32:29.780Z,1.97
2019-05-26T20:36:30.712Z,1.93
2019-05-26T20:40:31.795Z,2.47
2019-05-26T20:44:32.686Z,3.40
2019-05-26T20:48:36.263Z,2.23
2019-05-26T20:52:37.413Z,2.00
2019-05-26T20:56:39.314Z,2.33
2019-05-26T21:00:40.593Z,3.03
2019-05-26T21:04:41.514Z,2.80
2019-05-26T21:08:42.414Z,2.43
2019-05-26T21:12:43.304Z,1.80
2019-05-26T21:16:44.326Z,2.53
2019-05-26T21:20:45.486Z,2.70
2019-05-26T21:24:46.396Z,2.30
2019-05-26T21:28:47.336Z,2.67
2019-05-26T21:32:48.207Z,1.90
2019-05-26T21:36:49.087Z,2.00
2019-05-26T21:40:50.002Z,2.70
2019-05-26T21:44:50.892Z,2.30
2019-05-26T21:48:51.773Z,1.97
2019-05-26T21:52:52.674Z,2.57
2019-05-26T21:56:53.560Z,2.50
2019-05-26T22:00:55.004Z,2.60
2019-05-26T22:04:56.009Z,2.10
2019-05-26T22:08:56.993Z,2.20
2019-05-26T22:12:57.884Z,2.60
2019-05-26T22:16:58.868Z,3.20
2019-05-26T22:20:59.746Z,2.40
2019-05-26T22:25:00.603Z,2.93
2019-05-26T22:29:01.689Z,2.60
2019-05-26T22:33:03.491Z,1.87
2019-05-26T22:37:04.490Z,2.30
2019-05-26T22:41:05.497Z,2.37
2019-05-26T22:45:07.005Z,2.57
2019-05-26T22:49:08.066Z,2.50
2019-05-26T22:53:08.967Z,2.70
2019-05-26T22:57:09.857Z,2.90
2019-05-26T23:01:10.844Z,2.70
2019-05-26T23:05:12.197Z,3.13
2019-05-26T23:09:13.078Z,2.67
2019-05-26T23:13:14.048Z,2.67
2019-05-26T23:17:15.023Z,2.97
2019-05-26T23:21:15.892Z,3.07
2019-05-26T23:25:16.957Z,3.70
2019-05-26T23:29:17.957Z,3.53
2019-05-26T23:33:18.811Z,3.33
2019-05-26T23:37:19.820Z,2.40
2019-05-26T23:41:20.694Z,2.60
2019-05-26T23:45:21.573Z,2.83
2019-05-26T23:49:22.476Z,3.60
2019-05-26T23:53:23.376Z,3.23
2019-05-26T23:57:24.267Z,3.60
